sensor_id;sensor_type;location;lat;lon;timestamp;P1;durP1;ratioP1;P2;durP2;ratioP2
12519;SDS011;6325;49.540;8.364;2023-12-20T00:01:34;1.80;;;1.70;;
12519;SDS011;6325;49.540;8.364;2023-12-20T00:04:02;1.48;;;1.40;;
12519;SDS011;6325;49.540;8.364;2023-12-20T00:06:30;0.80;;;0.80;;
12519;SDS011;6325;49.540;8.364;2023-12-20T00:08:57;0.60;;;0.60;;
12519;SDS011;6325;49.540;8.364;2023-12-20T00:11:24;0.60;;;0.60;;
12519;SDS011;6325;49.540;8.364;2023-12-20T00:13:51;1.10;;;1.00;;
12519;SDS011;6325;49.540;8.364;2023-12-20T00:16:18;0.80;;;0.80;;
12519;SDS011;6325;49.540;8.364;2023-12-20T00:18:45;0.60;;;0.60;;
12519;SDS011;6325;49.540;8.364;2023-12-20T00:21:12;0.60;;;0.60;;
12519;SDS011;6325;49.540;8.364;2023-12-20T00:23:42;0.80;;;0.80;;
12519;SDS011;6325;49.540;8.364;2023-12-20T00:26:08;1.08;;;1.08;;
12519;SDS011;6325;49.540;8.364;2023-12-20T00:28:35;1.13;;;1.13;;
12519;SDS011;6325;49.540;8.364;2023-12-20T00:31:03;1.30;;;1.20;;
12519;SDS011;6325;49.540;8.364;2023-12-20T00:33:29;1.00;;;1.00;;
12519;SDS011;6325;49.540;8.364;2023-12-20T00:35:56;1.10;;;1.10;;
12519;SDS011;6325;49.540;8.364;2023-12-20T00:38:23;1.00;;;1.00;;
12519;SDS011;6325;49.540;8.364;2023-12-20T00:40:52;1.00;;;1.00;;
12519;SDS011;6325;49.540;8.364;2023-12-20T00:43:19;0.88;;;0.88;;
12519;SDS011;6325;49.540;8.364;2023-12-20T00:45:46;0.80;;;0.80;;
12519;SDS011;6325;49.540;8.364;2023-12-20T00:48:13;0.77;;;0.77;;
12519;SDS011;6325;49.540;8.364;2023-12-20T00:50:39;0.90;;;0.90;;
12519;SDS011;6325;49.540;8.364;2023-12-20T00:53:06;0.68;;;0.68;;
12519;SDS011;6325;49.540;8.364;2023-12-20T00:55:33;0.60;;;0.60;;
12519;SDS011;6325;49.540;8.364;2023-12-20T00:58:01;0.70;;;0.70;;
12519;SDS011;6325;49.540;8.364;2023-12-20T01:00:28;0.50;;;0.50;;
12519;SDS011;6325;49.540;8.364;2023-12-20T01:02:55;0.80;;;0.80;;
12519;SDS011;6325;49.540;8.364;2023-12-20T01:05:22;0.63;;;0.63;;
12519;SDS011;6325;49.540;8.364;2023-12-20T01:07:49;1.23;;;1.10;;
12519;SDS011;6325;49.540;8.364;2023-12-20T01:10:15;0.70;;;0.70;;
12519;SDS011;6325;49.540;8.364;2023-12-20T01:12:43;0.73;;;0.73;;
12519;SDS011;6325;49.540;8.364;2023-12-20T01:15:11;1.60;;;1.50;;
12519;SDS011;6325;49.540;8.364;2023-12-20T01:17:38;0.70;;;0.70;;
12519;SDS011;6325;49.540;8.364;2023-12-20T01:20:05;0.57;;;0.57;;
12519;SDS011;6325;49.540;8.364;2023-12-20T01:22:33;1.73;;;1.23;;
12519;SDS011;6325;49.540;8.364;2023-12-20T01:25:00;0.53;;;0.53;;
12519;SDS011;6325;49.540;8.364;2023-12-20T01:27:28;0.80;;;0.80;;
12519;SDS011;6325;49.540;8.364;2023-12-20T01:29:56;0.47;;;0.47;;
12519;SDS011;6325;49.540;8.364;2023-12-20T01:32:24;0.40;;;0.40;;
12519;SDS011;6325;49.540;8.364;2023-12-20T01:34:53;0.40;;;0.40;;
12519;SDS011;6325;49.540;8.364;2023-12-20T01:37:20;0.57;;;0.57;;
12519;SDS011;6325;49.540;8.364;2023-12-20T01:39:48;0.60;;;0.60;;
12519;SDS011;6325;49.540;8.364;2023-12-20T01:42:15;0.77;;;0.77;;
12519;SDS011;6325;49.540;8.364;2023-12-20T01:44:42;1.55;;;1.40;;
12519;SDS011;6325;49.540;8.364;2023-12-20T01:47:09;0.83;;;0.80;;
12519;SDS011;6325;49.540;8.364;2023-12-20T01:49:37;0.40;;;0.40;;
12519;SDS011;6325;49.540;8.364;2023-12-20T01:52:04;0.40;;;0.40;;
12519;SDS011;6325;49.540;8.364;2023-12-20T01:54:32;0.30;;;0.30;;
12519;SDS011;6325;49.540;8.364;2023-12-20T01:56:59;0.40;;;0.40;;
12519;SDS011;6325;49.540;8.364;2023-12-20T01:59:28;0.30;;;0.30;;
12519;SDS011;6325;49.540;8.364;2023-12-20T02:01:55;0.30;;;0.30;;
12519;SDS011;6325;49.540;8.364;2023-12-20T02:04:22;0.28;;;0.28;;
12519;SDS011;6325;49.540;8.364;2023-12-20T02:06:51;0.30;;;0.30;;
12519;SDS011;6325;49.540;8.364;2023-12-20T02:09:19;0.30;;;0.30;;
12519;SDS011;6325;49.540;8.364;2023-12-20T02:11:45;0.40;;;0.40;;
12519;SDS011;6325;49.540;8.364;2023-12-20T02:14:12;0.40;;;0.40;;
12519;SDS011;6325;49.540;8.364;2023-12-20T02:16:39;0.40;;;0.40;;
12519;SDS011;6325;49.540;8.364;2023-12-20T02:19:05;0.30;;;0.30;;
12519;SDS011;6325;49.540;8.364;2023-12-20T02:21:40;0.80;;;0.80;;
12519;SDS011;6325;49.540;8.364;2023-12-20T02:24:07;1.02;;;1.02;;
12519;SDS011;6325;49.540;8.364;2023-12-20T02:26:34;0.90;;;0.90;;
12519;SDS011;6325;49.540;8.364;2023-12-20T02:29:01;0.90;;;0.90;;
12519;SDS011;6325;49.540;8.364;2023-12-20T02:31:28;0.63;;;0.60;;
12519;SDS011;6325;49.540;8.364;2023-12-20T02:33:55;0.50;;;0.50;;
12519;SDS011;6325;49.540;8.364;2023-12-20T02:36:22;0.50;;;0.50;;
12519;SDS011;6325;49.540;8.364;2023-12-20T02:38:50;0.40;;;0.40;;
12519;SDS011;6325;49.540;8.364;2023-12-20T02:41:17;0.30;;;0.30;;
12519;SDS011;6325;49.540;8.364;2023-12-20T02:43:43;0.30;;;0.30;;
12519;SDS011;6325;49.540;8.364;2023-12-20T02:46:10;0.40;;;0.40;;
12519;SDS011;6325;49.540;8.364;2023-12-20T02:48:37;0.50;;;0.50;;
12519;SDS011;6325;49.540;8.364;2023-12-20T02:51:04;0.30;;;0.30;;
12519;SDS011;6325;49.540;8.364;2023-12-20T02:53:31;0.40;;;0.40;;
12519;SDS011;6325;49.540;8.364;2023-12-20T02:55:59;0.40;;;0.40;;
12519;SDS011;6325;49.540;8.364;2023-12-20T02:58:26;0.40;;;0.40;;
12519;SDS011;6325;49.540;8.364;2023-12-20T03:00:52;0.40;;;0.40;;
12519;SDS011;6325;49.540;8.364;2023-12-20T03:03:19;0.40;;;0.40;;
12519;SDS011;6325;49.540;8.364;2023-12-20T03:05:46;0.40;;;0.40;;
12519;SDS011;6325;49.540;8.364;2023-12-20T03:08:12;0.40;;;0.40;;
12519;SDS011;6325;49.540;8.364;2023-12-20T03:10:39;0.40;;;0.40;;
12519;SDS011;6325;49.540;8.364;2023-12-20T03:13:07;0.30;;;0.30;;
12519;SDS011;6325;49.540;8.364;2023-12-20T03:15:34;0.40;;;0.40;;
12519;SDS011;6325;49.540;8.364;2023-12-20T03:18:01;0.40;;;0.40;;
12519;SDS011;6325;49.540;8.364;2023-12-20T03:20:28;0.40;;;0.40;;
12519;SDS011;6325;49.540;8.364;2023-12-20T03:22:56;0.30;;;0.30;;
12519;SDS011;6325;49.540;8.364;2023-12-20T03:25:23;0.30;;;0.30;;
12519;SDS011;6325;49.540;8.364;2023-12-20T03:27:50;0.43;;;0.43;;
12519;SDS011;6325;49.540;8.364;2023-12-20T03:30:18;0.40;;;0.40;;
12519;SDS011;6325;49.540;8.364;2023-12-20T03:32:45;0.40;;;0.40;;
12519;SDS011;6325;49.540;8.364;2023-12-20T03:35:12;0.40;;;0.40;;
12519;SDS011;6325;49.540;8.364;2023-12-20T03:37:39;0.40;;;0.40;;
12519;SDS011;6325;49.540;8.364;2023-12-20T03:40:06;0.60;;;0.60;;
12519;SDS011;6325;49.540;8.364;2023-12-20T03:42:33;0.60;;;0.60;;
12519;SDS011;6325;49.540;8.364;2023-12-20T03:45:00;0.70;;;0.70;;
12519;SDS011;6325;49.540;8.364;2023-12-20T03:47:28;0.65;;;0.65;;
12519;SDS011;6325;49.540;8.364;2023-12-20T03:49:55;0.60;;;0.60;;
12519;SDS011;6325;49.540;8.364;2023-12-20T03:52:22;0.80;;;0.70;;
12519;SDS011;6325;49.540;8.364;2023-12-20T03:54:48;0.80;;;0.80;;
12519;SDS011;6325;49.540;8.364;2023-12-20T03:57:15;1.00;;;1.00;;
12519;SDS011;6325;49.540;8.364;2023-12-20T03:59:42;2.10;;;1.30;;
12519;SDS011;6325;49.540;8.364;2023-12-20T04:02:09;5.03;;;3.00;;
12519;SDS011;6325;49.540;8.364;2023-12-20T04:04:37;7.13;;;3.40;;
12519;SDS011;6325;49.540;8.364;2023-12-20T04:07:03;2.22;;;1.73;;
12519;SDS011;6325;49.540;8.364;2023-12-20T04:09:30;0.93;;;0.93;;
12519;SDS011;6325;49.540;8.364;2023-12-20T04:11:57;1.40;;;1.30;;
12519;SDS011;6325;49.540;8.364;2023-12-20T04:14:24;4.07;;;2.60;;
12519;SDS011;6325;49.540;8.364;2023-12-20T04:16:51;2.20;;;1.58;;
12519;SDS011;6325;49.540;8.364;2023-12-20T04:19:18;1.30;;;1.20;;
12519;SDS011;6325;49.540;8.364;2023-12-20T04:21:46;1.30;;;1.20;;
12519;SDS011;6325;49.540;8.364;2023-12-20T04:24:13;1.30;;;1.20;;
12519;SDS011;6325;49.540;8.364;2023-12-20T04:26:39;5.53;;;3.10;;
12519;SDS011;6325;49.540;8.364;2023-12-20T04:29:06;7.47;;;3.97;;
12519;SDS011;6325;49.540;8.364;2023-12-20T04:31:33;4.25;;;2.88;;
12519;SDS011;6325;49.540;8.364;2023-12-20T04:34:00;3.83;;;2.50;;
12519;SDS011;6325;49.540;8.364;2023-12-20T04:36:26;3.10;;;2.38;;
12519;SDS011;6325;49.540;8.364;2023-12-20T04:38:56;3.78;;;2.80;;
12519;SDS011;6325;49.540;8.364;2023-12-20T04:41:24;3.65;;;2.60;;
12519;SDS011;6325;49.540;8.364;2023-12-20T04:43:52;3.40;;;2.58;;
12519;SDS011;6325;49.540;8.364;2023-12-20T04:46:19;2.75;;;2.33;;
12519;SDS011;6325;49.540;8.364;2023-12-20T04:48:46;3.25;;;2.40;;
12519;SDS011;6325;49.540;8.364;2023-12-20T04:51:13;4.70;;;3.28;;
12519;SDS011;6325;49.540;8.364;2023-12-20T04:53:39;9.18;;;5.30;;
12519;SDS011;6325;49.540;8.364;2023-12-20T04:56:07;5.18;;;3.35;;
12519;SDS011;6325;49.540;8.364;2023-12-20T04:58:34;4.78;;;3.40;;
12519;SDS011;6325;49.540;8.364;2023-12-20T05:01:01;4.32;;;3.28;;
12519;SDS011;6325;49.540;8.364;2023-12-20T05:03:29;6.93;;;4.40;;
12519;SDS011;6325;49.540;8.364;2023-12-20T05:05:55;6.47;;;4.18;;
12519;SDS011;6325;49.540;8.364;2023-12-20T05:08:22;4.03;;;3.35;;
12519;SDS011;6325;49.540;8.364;2023-12-20T05:10:50;6.18;;;4.30;;
12519;SDS011;6325;49.540;8.364;2023-12-20T05:13:18;3.47;;;3.15;;
12519;SDS011;6325;49.540;8.364;2023-12-20T05:15:45;3.17;;;2.85;;
12519;SDS011;6325;49.540;8.364;2023-12-20T05:18:11;3.28;;;2.97;;
12519;SDS011;6325;49.540;8.364;2023-12-20T05:20:38;3.28;;;2.97;;
12519;SDS011;6325;49.540;8.364;2023-12-20T05:23:05;3.30;;;3.00;;
12519;SDS011;6325;49.540;8.364;2023-12-20T05:25:32;3.67;;;3.20;;
12519;SDS011;6325;49.540;8.364;2023-12-20T05:27:59;4.32;;;3.83;;
12519;SDS011;6325;49.540;8.364;2023-12-20T05:30:27;3.83;;;3.10;;
12519;SDS011;6325;49.540;8.364;2023-12-20T05:32:54;4.00;;;3.60;;
12519;SDS011;6325;49.540;8.364;2023-12-20T05:35:21;3.53;;;3.22;;
12519;SDS011;6325;49.540;8.364;2023-12-20T05:37:48;2.38;;;2.28;;
12519;SDS011;6325;49.540;8.364;2023-12-20T05:40:15;2.50;;;2.30;;
12519;SDS011;6325;49.540;8.364;2023-12-20T05:42:42;3.20;;;2.90;;
12519;SDS011;6325;49.540;8.364;2023-12-20T05:45:09;3.38;;;3.08;;
12519;SDS011;6325;49.540;8.364;2023-12-20T05:47:37;7.18;;;5.28;;
12519;SDS011;6325;49.540;8.364;2023-12-20T05:50:04;4.78;;;3.80;;
12519;SDS011;6325;49.540;8.364;2023-12-20T05:52:31;6.47;;;4.65;;
12519;SDS011;6325;49.540;8.364;2023-12-20T05:54:58;4.18;;;3.78;;
12519;SDS011;6325;49.540;8.364;2023-12-20T05:57:26;4.78;;;4.13;;
12519;SDS011;6325;49.540;8.364;2023-12-20T05:59:53;5.70;;;4.82;;
12519;SDS011;6325;49.540;8.364;2023-12-20T06:02:19;5.45;;;4.13;;
12519;SDS011;6325;49.540;8.364;2023-12-20T06:04:47;6.68;;;4.88;;
12519;SDS011;6325;49.540;8.364;2023-12-20T06:07:14;13.68;;;8.10;;
12519;SDS011;6325;49.540;8.364;2023-12-20T06:09:42;9.47;;;5.93;;
12519;SDS011;6325;49.540;8.364;2023-12-20T06:12:11;9.93;;;5.85;;
12519;SDS011;6325;49.540;8.364;2023-12-20T06:14:38;9.40;;;5.90;;
12519;SDS011;6325;49.540;8.364;2023-12-20T06:17:05;11.25;;;6.10;;
12519;SDS011;6325;49.540;8.364;2023-12-20T06:19:31;9.30;;;5.82;;
12519;SDS011;6325;49.540;8.364;2023-12-20T06:22:00;6.50;;;4.50;;
12519;SDS011;6325;49.540;8.364;2023-12-20T06:24:26;5.63;;;4.10;;
12519;SDS011;6325;49.540;8.364;2023-12-20T06:26:53;3.55;;;3.10;;
12519;SDS011;6325;49.540;8.364;2023-12-20T06:29:20;2.38;;;2.17;;
12519;SDS011;6325;49.540;8.364;2023-12-20T06:31:47;1.90;;;1.80;;
12519;SDS011;6325;49.540;8.364;2023-12-20T06:34:14;2.50;;;2.30;;
12519;SDS011;6325;49.540;8.364;2023-12-20T06:36:40;2.00;;;1.90;;
12519;SDS011;6325;49.540;8.364;2023-12-20T06:39:09;1.90;;;1.80;;
12519;SDS011;6325;49.540;8.364;2023-12-20T06:41:37;1.70;;;1.60;;
12519;SDS011;6325;49.540;8.364;2023-12-20T06:44:04;1.75;;;1.65;;
12519;SDS011;6325;49.540;8.364;2023-12-20T06:46:31;1.70;;;1.60;;
12519;SDS011;6325;49.540;8.364;2023-12-20T06:48:57;1.65;;;1.55;;
12519;SDS011;6325;49.540;8.364;2023-12-20T06:51:24;1.60;;;1.50;;
12519;SDS011;6325;49.540;8.364;2023-12-20T06:53:51;1.90;;;1.80;;
12519;SDS011;6325;49.540;8.364;2023-12-20T06:56:19;1.92;;;1.73;;
12519;SDS011;6325;49.540;8.364;2023-12-20T06:58:46;1.83;;;1.73;;
12519;SDS011;6325;49.540;8.364;2023-12-20T07:01:13;2.10;;;1.90;;
12519;SDS011;6325;49.540;8.364;2023-12-20T07:03:40;1.73;;;1.63;;
12519;SDS011;6325;49.540;8.364;2023-12-20T07:06:07;1.65;;;1.55;;
12519;SDS011;6325;49.540;8.364;2023-12-20T07:08:34;2.60;;;1.50;;
12519;SDS011;6325;49.540;8.364;2023-12-20T07:11:01;1.45;;;1.30;;
12519;SDS011;6325;49.540;8.364;2023-12-20T07:13:29;1.58;;;1.40;;
12519;SDS011;6325;49.540;8.364;2023-12-20T07:15:56;3.42;;;2.50;;
12519;SDS011;6325;49.540;8.364;2023-12-20T07:18:23;2.30;;;1.80;;
12519;SDS011;6325;49.540;8.364;2023-12-20T07:20:50;2.25;;;1.80;;
12519;SDS011;6325;49.540;8.364;2023-12-20T07:23:16;1.60;;;1.33;;
12519;SDS011;6325;49.540;8.364;2023-12-20T07:25:44;2.25;;;1.73;;
12519;SDS011;6325;49.540;8.364;2023-12-20T07:28:11;1.50;;;1.40;;
12519;SDS011;6325;49.540;8.364;2023-12-20T07:30:39;2.70;;;2.00;;
12519;SDS011;6325;49.540;8.364;2023-12-20T07:33:06;3.67;;;2.22;;
12519;SDS011;6325;49.540;8.364;2023-12-20T07:35:34;5.27;;;2.60;;
12519;SDS011;6325;49.540;8.364;2023-12-20T07:38:00;5.72;;;3.40;;
12519;SDS011;6325;49.540;8.364;2023-12-20T07:40:27;4.65;;;3.03;;
12519;SDS011;6325;49.540;8.364;2023-12-20T07:42:54;3.60;;;2.60;;
12519;SDS011;6325;49.540;8.364;2023-12-20T07:45:21;3.95;;;2.50;;
12519;SDS011;6325;49.540;8.364;2023-12-20T07:47:49;3.45;;;2.30;;
12519;SDS011;6325;49.540;8.364;2023-12-20T07:50:16;2.95;;;2.10;;
12519;SDS011;6325;49.540;8.364;2023-12-20T07:52:43;2.90;;;2.00;;
12519;SDS011;6325;49.540;8.364;2023-12-20T07:55:09;2.22;;;2.00;;
12519;SDS011;6325;49.540;8.364;2023-12-20T07:57:36;2.10;;;1.70;;
12519;SDS011;6325;49.540;8.364;2023-12-20T08:00:03;3.00;;;2.00;;
12519;SDS011;6325;49.540;8.364;2023-12-20T08:02:31;2.10;;;1.58;;
12519;SDS011;6325;49.540;8.364;2023-12-20T08:04:59;8.02;;;4.10;;
12519;SDS011;6325;49.540;8.364;2023-12-20T08:07:26;8.80;;;4.53;;
12519;SDS011;6325;49.540;8.364;2023-12-20T08:09:52;7.60;;;3.67;;
12519;SDS011;6325;49.540;8.364;2023-12-20T08:12:20;7.25;;;3.75;;
12519;SDS011;6325;49.540;8.364;2023-12-20T08:14:46;6.23;;;3.50;;
12519;SDS011;6325;49.540;8.364;2023-12-20T08:17:13;5.13;;;2.70;;
12519;SDS011;6325;49.540;8.364;2023-12-20T08:19:41;4.85;;;3.08;;
12519;SDS011;6325;49.540;8.364;2023-12-20T08:22:09;7.00;;;3.40;;
12519;SDS011;6325;49.540;8.364;2023-12-20T08:24:36;2.78;;;1.90;;
12519;SDS011;6325;49.540;8.364;2023-12-20T08:27:03;3.95;;;2.45;;
12519;SDS011;6325;49.540;8.364;2023-12-20T08:29:30;5.18;;;3.00;;
12519;SDS011;6325;49.540;8.364;2023-12-20T08:31:57;5.70;;;2.95;;
12519;SDS011;6325;49.540;8.364;2023-12-20T08:34:23;4.28;;;2.40;;
12519;SDS011;6325;49.540;8.364;2023-12-20T08:36:50;6.35;;;4.30;;
12519;SDS011;6325;49.540;8.364;2023-12-20T08:39:18;5.95;;;3.35;;
12519;SDS011;6325;49.540;8.364;2023-12-20T08:41:45;6.40;;;3.30;;
12519;SDS011;6325;49.540;8.364;2023-12-20T08:44:12;4.00;;;2.53;;
12519;SDS011;6325;49.540;8.364;2023-12-20T08:46:39;5.00;;;2.83;;
12519;SDS011;6325;49.540;8.364;2023-12-20T08:49:06;3.03;;;1.83;;
12519;SDS011;6325;49.540;8.364;2023-12-20T08:51:34;5.60;;;2.83;;
12519;SDS011;6325;49.540;8.364;2023-12-20T08:54:00;4.93;;;2.58;;
12519;SDS011;6325;49.540;8.364;2023-12-20T08:56:34;4.72;;;2.55;;
12519;SDS011;6325;49.540;8.364;2023-12-20T08:59:01;6.00;;;3.42;;
12519;SDS011;6325;49.540;8.364;2023-12-20T09:01:27;6.88;;;3.53;;
12519;SDS011;6325;49.540;8.364;2023-12-20T09:03:54;2.30;;;1.42;;
12519;SDS011;6325;49.540;8.364;2023-12-20T09:06:21;3.47;;;2.00;;
12519;SDS011;6325;49.540;8.364;2023-12-20T09:08:48;5.05;;;2.35;;
12519;SDS011;6325;49.540;8.364;2023-12-20T09:11:15;6.03;;;3.50;;
12519;SDS011;6325;49.540;8.364;2023-12-20T09:13:44;5.68;;;2.80;;
12519;SDS011;6325;49.540;8.364;2023-12-20T09:16:10;10.00;;;4.57;;
12519;SDS011;6325;49.540;8.364;2023-12-20T09:18:38;9.50;;;4.85;;
12519;SDS011;6325;49.540;8.364;2023-12-20T09:21:04;8.43;;;4.00;;
12519;SDS011;6325;49.540;8.364;2023-12-20T09:23:31;6.80;;;3.75;;
12519;SDS011;6325;49.540;8.364;2023-12-20T09:25:58;7.45;;;3.92;;
12519;SDS011;6325;49.540;8.364;2023-12-20T09:28:25;8.25;;;4.05;;
12519;SDS011;6325;49.540;8.364;2023-12-20T09:30:53;6.40;;;3.67;;
12519;SDS011;6325;49.540;8.364;2023-12-20T09:33:20;4.03;;;2.53;;
12519;SDS011;6325;49.540;8.364;2023-12-20T09:35:46;8.25;;;3.55;;
12519;SDS011;6325;49.540;8.364;2023-12-20T09:38:13;7.05;;;4.05;;
12519;SDS011;6325;49.540;8.364;2023-12-20T09:40:42;6.60;;;3.55;;
12519;SDS011;6325;49.540;8.364;2023-12-20T09:43:10;5.50;;;3.20;;
12519;SDS011;6325;49.540;8.364;2023-12-20T09:45:39;6.35;;;3.80;;
12519;SDS011;6325;49.540;8.364;2023-12-20T09:48:08;6.22;;;3.30;;
12519;SDS011;6325;49.540;8.364;2023-12-20T09:50:37;5.95;;;3.17;;
12519;SDS011;6325;49.540;8.364;2023-12-20T09:53:04;6.20;;;3.47;;
12519;SDS011;6325;49.540;8.364;2023-12-20T09:55:34;4.47;;;2.92;;
12519;SDS011;6325;49.540;8.364;2023-12-20T09:58:02;4.95;;;2.90;;
12519;SDS011;6325;49.540;8.364;2023-12-20T10:00:29;6.60;;;3.30;;
12519;SDS011;6325;49.540;8.364;2023-12-20T10:02:56;6.90;;;3.30;;
12519;SDS011;6325;49.540;8.364;2023-12-20T10:05:27;5.35;;;3.05;;
12519;SDS011;6325;49.540;8.364;2023-12-20T10:07:55;5.63;;;3.40;;
12519;SDS011;6325;49.540;8.364;2023-12-20T10:10:22;7.18;;;4.00;;
12519;SDS011;6325;49.540;8.364;2023-12-20T10:13:02;7.22;;;3.55;;
12519;SDS011;6325;49.540;8.364;2023-12-20T10:15:30;6.25;;;3.55;;
12519;SDS011;6325;49.540;8.364;2023-12-20T10:17:58;7.10;;;3.58;;
12519;SDS011;6325;49.540;8.364;2023-12-20T10:20:25;6.33;;;3.00;;
12519;SDS011;6325;49.540;8.364;2023-12-20T10:22:54;7.78;;;4.20;;
12519;SDS011;6325;49.540;8.364;2023-12-20T10:25:21;7.80;;;4.10;;
12519;SDS011;6325;49.540;8.364;2023-12-20T10:27:48;9.10;;;4.43;;
12519;SDS011;6325;49.540;8.364;2023-12-20T10:30:16;6.82;;;4.10;;
12519;SDS011;6325;49.540;8.364;2023-12-20T10:32:43;3.55;;;2.20;;
12519;SDS011;6325;49.540;8.364;2023-12-20T10:35:09;3.33;;;1.90;;
12519;SDS011;6325;49.540;8.364;2023-12-20T10:37:38;4.10;;;2.37;;
12519;SDS011;6325;49.540;8.364;2023-12-20T10:40:05;3.75;;;2.05;;
12519;SDS011;6325;49.540;8.364;2023-12-20T10:42:32;2.83;;;1.80;;
12519;SDS011;6325;49.540;8.364;2023-12-20T10:45:01;5.03;;;2.90;;
12519;SDS011;6325;49.540;8.364;2023-12-20T10:47:27;5.18;;;2.58;;
12519;SDS011;6325;49.540;8.364;2023-12-20T10:49:57;7.65;;;3.70;;
12519;SDS011;6325;49.540;8.364;2023-12-20T10:52:26;5.45;;;2.92;;
12519;SDS011;6325;49.540;8.364;2023-12-20T10:54:56;8.47;;;3.87;;
12519;SDS011;6325;49.540;8.364;2023-12-20T10:57:23;6.32;;;3.13;;
12519;SDS011;6325;49.540;8.364;2023-12-20T10:59:54;6.43;;;3.90;;
12519;SDS011;6325;49.540;8.364;2023-12-20T11:02:22;3.85;;;2.10;;
12519;SDS011;6325;49.540;8.364;2023-12-20T11:04:50;2.13;;;1.75;;
12519;SDS011;6325;49.540;8.364;2023-12-20T11:07:23;4.72;;;2.80;;
12519;SDS011;6325;49.540;8.364;2023-12-20T11:10:10;3.17;;;2.05;;
12519;SDS011;6325;49.540;8.364;2023-12-20T11:12:43;7.68;;;3.60;;
12519;SDS011;6325;49.540;8.364;2023-12-20T11:15:15;3.65;;;2.30;;
12519;SDS011;6325;49.540;8.364;2023-12-20T11:17:44;4.30;;;2.10;;
12519;SDS011;6325;49.540;8.364;2023-12-20T11:20:11;2.47;;;1.73;;
12519;SDS011;6325;49.540;8.364;2023-12-20T11:22:38;6.40;;;3.72;;
12519;SDS011;6325;49.540;8.364;2023-12-20T11:25:19;4.93;;;2.65;;
12519;SDS011;6325;49.540;8.364;2023-12-20T11:28:06;2.60;;;1.92;;
12519;SDS011;6325;49.540;8.364;2023-12-20T11:33:21;5.63;;;3.08;;
12519;SDS011;6325;49.540;8.364;2023-12-20T11:35:48;3.13;;;2.20;;
12519;SDS011;6325;49.540;8.364;2023-12-20T11:38:15;6.10;;;3.00;;
12519;SDS011;6325;49.540;8.364;2023-12-20T11:40:43;7.60;;;3.85;;
12519;SDS011;6325;49.540;8.364;2023-12-20T11:43:10;8.80;;;4.60;;
12519;SDS011;6325;49.540;8.364;2023-12-20T11:45:37;5.82;;;3.00;;
12519;SDS011;6325;49.540;8.364;2023-12-20T11:48:04;6.55;;;3.30;;
12519;SDS011;6325;49.540;8.364;2023-12-20T11:50:32;7.28;;;4.20;;
12519;SDS011;6325;49.540;8.364;2023-12-20T11:52:59;6.35;;;4.00;;
12519;SDS011;6325;49.540;8.364;2023-12-20T11:55:25;8.10;;;3.88;;
12519;SDS011;6325;49.540;8.364;2023-12-20T11:57:54;6.65;;;3.80;;
12519;SDS011;6325;49.540;8.364;2023-12-20T12:00:20;5.43;;;3.20;;
12519;SDS011;6325;49.540;8.364;2023-12-20T12:02:57;5.20;;;2.80;;
12519;SDS011;6325;49.540;8.364;2023-12-20T12:05:24;4.20;;;2.50;;
12519;SDS011;6325;49.540;8.364;2023-12-20T12:07:51;2.83;;;1.70;;
12519;SDS011;6325;49.540;8.364;2023-12-20T12:10:18;2.85;;;1.77;;
12519;SDS011;6325;49.540;8.364;2023-12-20T12:12:45;6.85;;;3.90;;
12519;SDS011;6325;49.540;8.364;2023-12-20T12:15:14;10.57;;;4.88;;
12519;SDS011;6325;49.540;8.364;2023-12-20T12:17:41;4.80;;;2.67;;
12519;SDS011;6325;49.540;8.364;2023-12-20T12:20:08;5.30;;;3.08;;
12519;SDS011;6325;49.540;8.364;2023-12-20T12:22:35;6.90;;;3.65;;
12519;SDS011;6325;49.540;8.364;2023-12-20T12:25:09;6.80;;;3.67;;
12519;SDS011;6325;49.540;8.364;2023-12-20T12:27:36;6.78;;;3.10;;
12519;SDS011;6325;49.540;8.364;2023-12-20T12:30:05;5.17;;;2.40;;
12519;SDS011;6325;49.540;8.364;2023-12-20T12:32:34;7.47;;;3.55;;
12519;SDS011;6325;49.540;8.364;2023-12-20T12:35:02;5.97;;;3.40;;
12519;SDS011;6325;49.540;8.364;2023-12-20T12:37:31;5.32;;;2.88;;
12519;SDS011;6325;49.540;8.364;2023-12-20T12:40:00;7.40;;;3.85;;
12519;SDS011;6325;49.540;8.364;2023-12-20T12:42:26;5.75;;;3.33;;
12519;SDS011;6325;49.540;8.364;2023-12-20T12:44:54;7.78;;;4.20;;
12519;SDS011;6325;49.540;8.364;2023-12-20T12:47:21;7.78;;;4.00;;
12519;SDS011;6325;49.540;8.364;2023-12-20T12:49:50;8.45;;;4.32;;
12519;SDS011;6325;49.540;8.364;2023-12-20T12:52:18;7.18;;;3.88;;
12519;SDS011;6325;49.540;8.364;2023-12-20T12:54:45;6.50;;;3.60;;
12519;SDS011;6325;49.540;8.364;2023-12-20T12:57:12;7.60;;;3.90;;
12519;SDS011;6325;49.540;8.364;2023-12-20T12:59:39;7.80;;;3.95;;
12519;SDS011;6325;49.540;8.364;2023-12-20T13:02:06;5.25;;;2.58;;
12519;SDS011;6325;49.540;8.364;2023-12-20T13:04:33;4.60;;;2.50;;
12519;SDS011;6325;49.540;8.364;2023-12-20T13:07:01;4.97;;;3.20;;
12519;SDS011;6325;49.540;8.364;2023-12-20T13:09:28;4.10;;;2.83;;
12519;SDS011;6325;49.540;8.364;2023-12-20T13:11:54;4.10;;;2.25;;
12519;SDS011;6325;49.540;8.364;2023-12-20T13:14:21;3.58;;;2.00;;
12519;SDS011;6325;49.540;8.364;2023-12-20T13:19:50;2.00;;;1.60;;
12519;SDS011;6325;49.540;8.364;2023-12-20T13:22:18;2.60;;;1.70;;
12519;SDS011;6325;49.540;8.364;2023-12-20T13:24:45;3.55;;;2.08;;
12519;SDS011;6325;49.540;8.364;2023-12-20T13:27:12;2.00;;;1.60;;
12519;SDS011;6325;49.540;8.364;2023-12-20T13:29:39;3.33;;;1.92;;
12519;SDS011;6325;49.540;8.364;2023-12-20T13:32:06;4.53;;;2.55;;
12519;SDS011;6325;49.540;8.364;2023-12-20T13:34:33;2.63;;;2.00;;
12519;SDS011;6325;49.540;8.364;2023-12-20T13:36:59;2.67;;;1.80;;
12519;SDS011;6325;49.540;8.364;2023-12-20T13:39:28;2.35;;;1.60;;
12519;SDS011;6325;49.540;8.364;2023-12-20T13:41:56;2.95;;;1.85;;
12519;SDS011;6325;49.540;8.364;2023-12-20T13:44:23;2.45;;;1.90;;
12519;SDS011;6325;49.540;8.364;2023-12-20T13:46:50;2.88;;;1.52;;
12519;SDS011;6325;49.540;8.364;2023-12-20T13:49:16;2.45;;;1.70;;
12519;SDS011;6325;49.540;8.364;2023-12-20T13:51:43;1.83;;;1.50;;
12519;SDS011;6325;49.540;8.364;2023-12-20T13:54:10;2.55;;;1.63;;
12519;SDS011;6325;49.540;8.364;2023-12-20T13:56:38;2.28;;;1.50;;
12519;SDS011;6325;49.540;8.364;2023-12-20T13:59:05;4.88;;;2.50;;
12519;SDS011;6325;49.540;8.364;2023-12-20T14:01:31;3.22;;;1.95;;
12519;SDS011;6325;49.540;8.364;2023-12-20T14:03:58;2.00;;;1.80;;
12519;SDS011;6325;49.540;8.364;2023-12-20T14:06:26;2.13;;;1.50;;
12519;SDS011;6325;49.540;8.364;2023-12-20T14:08:53;1.73;;;1.33;;
12519;SDS011;6325;49.540;8.364;2023-12-20T14:11:19;1.85;;;1.63;;
12519;SDS011;6325;49.540;8.364;2023-12-20T14:13:47;2.57;;;1.70;;
12519;SDS011;6325;49.540;8.364;2023-12-20T14:16:14;2.63;;;1.40;;
12519;SDS011;6325;49.540;8.364;2023-12-20T14:18:41;2.15;;;1.48;;
12519;SDS011;6325;49.540;8.364;2023-12-20T14:21:08;7.15;;;3.63;;
12519;SDS011;6325;49.540;8.364;2023-12-20T14:23:35;3.15;;;1.63;;
12519;SDS011;6325;49.540;8.364;2023-12-20T14:26:01;1.97;;;1.33;;
12519;SDS011;6325;49.540;8.364;2023-12-20T14:28:28;2.92;;;1.35;;
12519;SDS011;6325;49.540;8.364;2023-12-20T14:30:56;3.10;;;1.70;;
12519;SDS011;6325;49.540;8.364;2023-12-20T14:33:23;3.58;;;2.30;;
12519;SDS011;6325;49.540;8.364;2023-12-20T14:35:50;3.83;;;2.15;;
12519;SDS011;6325;49.540;8.364;2023-12-20T14:38:17;1.90;;;1.45;;
12519;SDS011;6325;49.540;8.364;2023-12-20T14:40:44;3.10;;;2.05;;
12519;SDS011;6325;49.540;8.364;2023-12-20T14:43:11;5.93;;;3.10;;
12519;SDS011;6325;49.540;8.364;2023-12-20T14:45:38;2.50;;;1.77;;
12519;SDS011;6325;49.540;8.364;2023-12-20T14:48:06;2.17;;;1.48;;
12519;SDS011;6325;49.540;8.364;2023-12-20T14:50:33;3.00;;;1.50;;
12519;SDS011;6325;49.540;8.364;2023-12-20T14:53:01;3.17;;;1.70;;
12519;SDS011;6325;49.540;8.364;2023-12-20T14:55:28;2.30;;;1.30;;
12519;SDS011;6325;49.540;8.364;2023-12-20T14:57:55;3.45;;;1.70;;
12519;SDS011;6325;49.540;8.364;2023-12-20T15:00:22;2.38;;;1.83;;
12519;SDS011;6325;49.540;8.364;2023-12-20T15:02:48;4.32;;;2.60;;
12519;SDS011;6325;49.540;8.364;2023-12-20T15:05:17;6.07;;;3.57;;
12519;SDS011;6325;49.540;8.364;2023-12-20T15:07:44;3.83;;;2.17;;